Time;durP1;ratioP1;P1;durP2;ratioP2;P2;SDS_P1;SDS_P2;PMS_P1;PMS_P2;Temp;Humidity;BMP_temperature;BMP_pressure;BME280_temperature;BME280_humidity;BME280_pressure;Samples;Min_cycle;Max_cycle;Signal;HPM_P1;HPM_P2
2023/11/24 00:02:14;;;;;;;19.33;13.80;;;;;;;9.32;64.02;99336.75;5092868;28;20378;-49
2023/11/24 00:04:40;;;;;;;21.35;15.43;;;;;;;9.09;63.28;99347.22;5094144;28;20017;-49
2023/11/24 00:07:06;;;;;;;20.83;15.73;;;;;;;8.95;63.74;99347.00;5092814;28;20062;-49
2023/11/24 00:09:31;;;;;;;21.98;18.13;;;;;;;8.89;63.36;99357.31;5092766;28;20024;-49
2023/11/24 00:12:00;;;;;;;49.17;43.88;;;;;;;8.67;63.74;99354.50;5093964;28;20028;-49
2023/11/24 00:14:26;;;;;;;97.97;88.00;;;;;;;8.77;64.14;99368.19;5093935;28;20490;-48
2023/11/24 00:16:52;;;;;;;37.13;30.05;;;;;;;8.73;63.88;99371.31;5093514;28;20059;-49
2023/11/24 00:19:17;;;;;;;26.10;21.00;;;;;;;8.55;63.56;99361.09;5092826;28;20055;-49
2023/11/24 00:21:44;;;;;;;21.92;14.95;;;;;;;8.52;64.99;99343.94;5092216;28;20127;-49
2023/11/24 00:24:10;;;;;;;21.88;15.88;;;;;;;8.82;65.12;99333.66;5093800;28;20385;-49
2023/11/24 00:26:36;;;;;;;20.20;15.45;;;;;;;9.21;63.53;99345.81;5093708;28;20028;-49
2023/11/24 00:29:02;;;;;;;20.55;14.65;;;;;;;9.26;63.15;99338.25;5093683;28;20559;-49
2023/11/24 00:31:28;;;;;;;18.73;15.45;;;;;;;9.47;62.36;99340.22;5092447;28;20062;-49
2023/11/24 00:33:55;;;;;;;18.63;15.13;;;;;;;9.26;61.69;99324.38;5092230;28;20512;-49
2023/11/24 00:36:22;;;;;;;20.17;16.42;;;;;;;8.89;61.73;99337.19;5093408;28;20493;-49
2023/11/24 00:38:50;;;;;;;19.52;16.55;;;;;;;8.48;62.11;99336.59;5093508;28;20016;-49
2023/11/24 00:41:17;;;;;;;19.08;15.55;;;;;;;8.23;63.33;99346.31;5093356;28;20102;-49
2023/11/24 00:43:43;;;;;;;22.92;16.50;;;;;;;8.23;64.33;99341.06;5092112;28;20021;-49
2023/11/24 00:46:11;;;;;;;20.88;16.20;;;;;;;8.32;64.10;99340.06;5092023;28;20023;-49
2023/11/24 00:48:40;;;;;;;20.48;15.75;;;;;;;8.42;65.07;99343.34;5093222;28;20027;-49
2023/11/24 00:51:07;;;;;;;22.88;16.40;;;;;;;8.82;67.13;99336.25;5093237;28;20552;-49
2023/11/24 00:53:34;;;;;;;26.38;18.27;;;;;;;8.96;67.82;99338.13;5093190;28;20024;-49
2023/11/24 00:56:00;;;;;;;24.55;17.48;;;;;;;8.75;68.06;99330.91;5093085;28;20035;-49
2023/11/24 00:58:26;;;;;;;20.13;15.38;;;;;;;8.88;70.24;99337.38;5091799;28;20028;-49
2023/11/24 01:00:53;;;;;;;21.17;15.35;;;;;;;9.25;70.17;99322.72;5093027;28;20401;-49
2023/11/24 01:03:21;;;;;;;20.55;16.42;;;;;;;9.43;68.90;99328.44;5093042;28;20022;-49
2023/11/24 01:05:48;;;;;;;26.15;19.27;;;;;;;9.50;67.65;99308.44;5092944;28;20078;-49
2023/11/24 01:08:15;;;;;;;61.97;52.40;;;;;;;9.49;67.02;99317.25;5092837;28;20097;-49
2023/11/24 01:10:41;;;;;;;32.55;23.50;;;;;;;9.32;66.45;99316.59;5093219;28;20028;-49
2023/11/24 01:13:07;;;;;;;33.83;23.45;;;;;;;9.06;66.46;99316.97;5091538;28;20130;-49
2023/11/24 01:15:33;;;;;;;21.50;17.60;;;;;;;8.83;66.73;99316.13;5092643;28;20093;-49
2023/11/24 01:17:59;;;;;;;18.73;16.70;;;;;;;8.48;66.13;99313.06;5091755;28;20027;-49
2023/11/24 01:20:25;;;;;;;23.85;18.35;;;;;;;8.24;66.83;99313.97;5092457;28;20598;-49
2023/11/24 01:22:50;;;;;;;20.08;17.20;;;;;;;8.09;67.19;99303.38;5092843;28;20028;-49
2023/11/24 01:25:17;;;;;;;25.73;17.90;;;;;;;7.91;68.08;99301.00;5091305;28;20444;-49
2023/11/24 01:27:42;;;;;;;25.30;16.55;;;;;;;8.02;68.98;99295.41;5091906;28;20078;-49
2023/11/24 01:30:09;;;;;;;22.17;17.55;;;;;;;8.33;69.72;99292.00;5091219;28;20024;-49
2023/11/24 01:32:35;;;;;;;21.48;16.58;;;;;;;8.51;69.55;99286.56;5092466;28;20028;-48
2023/11/24 01:35:01;;;;;;;25.27;17.88;;;;;;;8.43;68.16;99278.75;5092373;28;20486;-49
2023/11/24 01:37:27;;;;;;;21.83;17.73;;;;;;;8.11;68.01;99273.50;5091120;28;20038;-49
2023/11/24 01:39:53;;;;;;;19.48;15.88;;;;;;;7.80;68.73;99278.63;5092382;28;20024;-49
2023/11/24 01:42:19;;;;;;;22.63;17.95;;;;;;;7.72;69.62;99276.84;5091097;28;20035;-49
2023/11/24 01:44:45;;;;;;;20.27;15.60;;;;;;;7.67;69.64;99275.75;5092370;28;20016;-49
2023/11/24 01:47:11;;;;;;;18.10;15.32;;;;;;;7.70;70.35;99273.59;5092352;28;20046;-49
2023/11/24 01:49:39;;;;;;;20.90;15.05;;;;;;;7.66;70.82;99264.47;5092556;28;20493;-49
2023/11/24 01:52:06;;;;;;;20.10;16.40;;;;;;;7.74;70.97;99258.41;5090918;28;20026;-48
2023/11/24 01:54:37;;;;;;;19.45;15.77;;;;;;;7.71;71.33;99251.72;5092152;28;20020;-49
2023/11/24 01:57:06;;;;;;;19.75;15.48;;;;;;;7.87;71.96;99247.41;5092154;28;20032;-49
2023/11/24 01:59:34;;;;;;;21.15;14.13;;;;;;;8.05;71.63;99252.41;5092128;28;20031;-49
2023/11/24 02:01:59;;;;;;;18.65;15.23;;;;;;;8.45;73.08;99245.38;5090741;28;20030;-48
2023/11/24 02:04:25;;;;;;;25.75;16.35;;;;;;;9.05;71.51;99234.16;5092011;28;20389;-49
2023/11/24 02:06:52;;;;;;;34.85;28.67;;;;;;;9.22;70.52;99242.72;5090718;28;20401;-48
2023/11/24 02:09:18;;;;;;;22.50;17.55;;;;;;;9.39;70.51;99248.59;5091976;28;20030;-49
2023/11/24 02:11:43;;;;;;;23.70;16.58;;;;;;;9.75;70.70;99243.47;5090599;28;20036;-49
2023/11/24 02:14:09;;;;;;;18.77;14.15;;;;;;;9.75;69.80;99243.47;5090631;28;20397;-49
2023/11/24 02:16:35;;;;;;;19.85;15.30;;;;;;;9.45;69.57;99237.41;5090572;28;20509;-49
2023/11/24 02:19:01;;;;;;;20.70;17.48;;;;;;;9.17;69.60;99230.13;5091851;28;20055;-49
2023/11/24 02:21:27;;;;;;;19.35;15.30;;;;;;;8.94;69.91;99217.09;5092038;28;20071;-49
2023/11/24 02:23:53;;;;;;;18.83;13.43;;;;;;;8.72;70.07;99210.06;5091821;28;20055;-49
2023/11/24 02:26:19;;;;;;;21.45;13.73;;;;;;;8.55;70.61;99220.66;5091812;28;20059;-49
2023/11/24 02:28:45;;;;;;;20.27;13.20;;;;;;;8.50;71.05;99207.28;5090482;28;20032;-47
2023/11/24 02:31:11;;;;;;;21.30;15.20;;;;;;;8.37;71.30;99202.59;5090439;28;20440;-49
2023/11/24 02:33:40;;;;;;;17.10;13.30;;;;;;;8.29;71.62;99191.34;5090709;28;20031;-49
2023/11/24 02:36:08;;;;;;;22.33;13.32;;;;;;;8.37;72.09;99196.53;5091645;28;20055;-49
2023/11/24 02:38:35;;;;;;;19.45;13.73;;;;;;;8.49;72.24;99195.19;5093215;28;20505;-49
2023/11/24 02:41:01;;;;;;;20.20;15.55;;;;;;;8.60;72.04;99200.00;5094440;28;20034;-49
2023/11/24 02:43:27;;;;;;;18.95;13.60;;;;;;;8.80;72.41;99200.34;5095802;28;20020;-49
2023/11/24 02:45:53;;;;;;;16.88;12.52;;;;;;;9.17;72.18;99193.47;5094667;28;20036;-49
2023/11/24 02:48:19;;;;;;;21.95;14.98;;;;;;;9.45;71.47;99197.28;5094344;28;20117;-49
2023/11/24 02:50:44;;;;;;;18.88;12.90;;;;;;;9.72;71.10;99201.09;5095765;28;20028;-48
2023/11/24 02:53:10;;;;;;;18.92;13.35;;;;;;;10.11;70.35;99192.88;5095535;28;20482;-48
2023/11/24 02:55:36;;;;;;;17.75;12.77;;;;;;;10.46;69.44;99193.06;5094068;28;20020;-49
2023/11/24 02:58:04;;;;;;;16.58;14.20;;;;;;;10.67;68.21;99188.84;5095398;28;20494;-49
2023/11/24 03:00:29;;;;;;;16.52;13.43;;;;;;;10.47;67.24;99178.97;5095386;28;20023;-49
2023/11/24 03:02:56;;;;;;;14.88;12.85;;;;;;;10.47;68.19;99176.34;5094345;28;20036;-49
2023/11/24 03:05:21;;;;;;;17.40;14.55;;;;;;;10.49;67.14;99182.22;5095316;28;20024;-49
2023/11/24 03:07:47;;;;;;;17.17;13.57;;;;;;;10.27;68.84;99163.00;5093956;28;20024;-49
2023/11/24 03:10:13;;;;;;;17.42;13.68;;;;;;;10.19;69.04;99147.38;5095217;28;20048;-49
2023/11/24 03:12:38;;;;;;;17.77;13.70;;;;;;;10.19;70.40;99153.44;5095433;28;20024;-49
2023/11/24 03:15:05;;;;;;;20.35;13.60;;;;;;;10.39;69.95;99152.84;5095050;28;20028;-49
2023/11/24 03:17:30;;;;;;;20.38;14.77;;;;;;;10.62;69.44;99143.97;5095086;28;20024;-49
2023/11/24 03:19:56;;;;;;;16.48;13.23;;;;;;;10.81;67.98;99148.56;5093455;28;20727;-50
2023/11/24 03:22:22;;;;;;;19.33;14.15;;;;;;;10.96;66.90;99137.97;5095046;28;20098;-49
2023/11/24 03:24:48;;;;;;;16.65;14.20;;;;;;;11.06;66.57;99137.63;5093645;28;20393;-49
2023/11/24 03:27:13;;;;;;;19.20;14.65;;;;;;;10.99;65.73;99150.72;5093568;28;20027;-49
2023/11/24 03:29:40;;;;;;;22.00;19.42;;;;;;;10.66;66.18;99138.13;5094903;28;20116;-49
2023/11/24 03:32:06;;;;;;;17.63;14.60;;;;;;;10.33;65.93;99148.34;5094787;28;20024;-49
2023/11/24 03:34:32;;;;;;;17.70;14.50;;;;;;;10.28;67.65;99148.91;5094771;28;20103;-49
2023/11/24 03:36:58;;;;;;;18.85;15.88;;;;;;;10.29;66.88;99144.44;5093629;28;20026;-49
2023/11/24 03:39:24;;;;;;;21.10;15.20;;;;;;;10.00;66.75;99146.19;5094755;28;20022;-49
2023/11/24 03:41:50;;;;;;;22.30;17.55;;;;;;;9.63;66.32;99144.53;5094595;28;20020;-49
2023/11/24 03:44:16;;;;;;;29.88;17.85;;;;;;;9.45;67.61;99132.59;5093283;28;20110;-49
2023/11/24 03:46:41;;;;;;;23.25;17.40;;;;;;;9.71;67.71;99137.34;5094762;28;20435;-48
2023/11/24 03:49:07;;;;;;;18.50;16.60;;;;;;;9.45;66.07;99129.97;5093189;28;20513;-49
2023/11/24 03:51:33;;;;;;;17.35;14.38;;;;;;;9.30;67.93;99129.19;5092667;28;20402;-49
2023/11/24 03:53:59;;;;;;;31.02;21.63;;;;;;;9.49;68.30;99123.38;5094669;28;20082;-49
2023/11/24 03:56:25;;;;;;;24.13;16.15;;;;;;;9.73;68.58;99106.53;5094280;28;20020;-49
2023/11/24 03:58:51;;;;;;;22.35;16.88;;;;;;;9.76;67.88;99108.00;5094367;28;20024;-49
2023/11/24 04:01:17;;;;;;;22.75;16.77;;;;;;;9.56;69.13;99082.38;5093377;28;20031;-49
2023/11/24 04:03:46;;;;;;;21.02;16.08;;;;;;;9.58;69.84;99097.91;5094240;28;20024;-49
2023/11/24 04:06:15;;;;;;;18.90;16.70;;;;;;;9.57;70.33;99101.50;5094177;28;20032;-49
2023/11/24 04:08:40;;;;;;;20.58;16.73;;;;;;;9.48;70.61;99090.34;5092808;28;20028;-49
2023/11/24 04:11:06;;;;;;;27.23;18.48;;;;;;;9.29;70.82;99085.66;5092875;28;20039;-48
2023/11/24 04:13:32;;;;;;;29.92;22.52;;;;;;;9.19;72.25;99085.91;5092809;28;20059;-49
2023/11/24 04:15:58;;;;;;;21.13;16.45;;;;;;;9.26;72.82;99078.97;5093922;28;20024;-49
2023/11/24 04:18:25;;;;;;;25.08;18.08;;;;;;;9.20;71.61;99069.22;5093965;28;20028;-49
2023/11/24 04:20:51;;;;;;;22.60;16.45;;;;;;;9.07;73.41;99061.19;5092265;28;20143;-49
2023/11/24 04:23:19;;;;;;;25.00;22.38;;;;;;;9.08;74.07;99057.59;5092878;28;20077;-49
2023/11/24 04:25:45;;;;;;;25.38;19.90;;;;;;;8.68;73.62;99068.31;5092461;28;20420;-49
2023/11/24 04:28:14;;;;;;;26.88;18.13;;;;;;;8.67;76.03;99074.53;5092764;28;20051;-49
2023/11/24 04:30:40;;;;;;;26.25;20.85;;;;;;;8.72;75.23;99061.72;5093904;28;20024;-48
2023/11/24 04:33:06;;;;;;;23.45;17.50;;;;;;;8.70;75.75;99053.25;5092459;28;20016;-49
2023/11/24 04:35:33;;;;;;;28.23;19.17;;;;;;;8.71;75.13;99054.03;5093482;28;20028;-49
2023/11/24 04:37:59;;;;;;;21.13;16.60;;;;;;;8.78;76.58;99063.63;5092232;28;20032;-49
2023/11/24 04:40:25;;;;;;;22.35;16.13;;;;;;;8.89;75.70;99049.25;5093424;28;20046;-48
2023/11/24 04:42:52;;;;;;;23.83;18.38;;;;;;;8.85;74.61;99048.00;5092155;28;20024;-49
2023/11/24 04:45:18;;;;;;;20.23;17.02;;;;;;;8.82;75.07;99047.56;5093402;28;20020;-49
2023/11/24 04:47:44;;;;;;;24.00;16.88;;;;;;;8.93;75.03;99037.47;5093295;28;20024;-49
2023/11/24 04:50:10;;;;;;;27.02;21.67;;;;;;;9.04;73.84;99046.66;5093326;28;20027;-49
2023/11/24 04:52:36;;;;;;;21.65;16.80;;;;;;;9.08;73.62;99044.50;5093272;28;20024;-49
2023/11/24 04:55:03;;;;;;;25.48;18.38;;;;;;;9.01;73.40;99047.00;5093155;28;20508;-49
2023/11/24 04:57:33;;;;;;;23.55;18.80;;;;;;;9.14;73.20;99052.44;5093088;28;20066;-49
2023/11/24 05:00:00;;;;;;;20.70;16.80;;;;;;;9.24;73.25;99056.59;5093112;28;20449;-49
2023/11/24 05:02:27;;;;;;;22.38;17.35;;;;;;;9.25;72.61;99061.63;5091957;28;20023;-49
2023/11/24 05:04:56;;;;;;;32.08;17.88;;;;;;;9.23;73.39;99061.00;5092079;28;20445;-49
2023/11/24 05:07:23;;;;;;;27.55;19.42;;;;;;;9.28;72.09;99048.19;5093029;28;20108;-49
2023/11/24 05:09:50;;;;;;;24.17;17.15;;;;;;;9.20;72.47;99061.38;5091711;28;20104;-49
2023/11/24 05:12:15;;;;;;;19.35;16.52;;;;;;;9.33;71.91;99066.75;5091548;28;20035;-49
2023/11/24 05:14:41;;;;;;;22.70;17.48;;;;;;;9.44;71.53;99062.03;5092857;28;20016;-49
2023/11/24 05:17:07;;;;;;;23.92;17.08;;;;;;;9.57;70.48;99049.09;5074482;28;20359;-49
2023/11/24 05:19:33;;;;;;;23.27;18.65;;;;;;;9.46;68.94;99047.78;5091397;28;20031;-49
2023/11/24 05:21:58;;;;;;;22.25;17.90;;;;;;;9.12;69.80;99046.56;5074273;28;20097;-49
2023/11/24 05:24:24;;;;;;;22.40;19.58;;;;;;;9.29;70.74;99038.50;5092641;28;20016;-49
2023/11/24 05:26:50;;;;;;;25.13;18.02;;;;;;;9.44;69.79;99035.84;5092646;28;20032;-49
2023/11/24 05:29:16;;;;;;;27.83;18.05;;;;;;;9.19;69.11;99033.56;5091449;28;20023;-49
2023/11/24 05:31:41;;;;;;;30.80;18.15;;;;;;;9.13;69.45;99034.28;5091163;28;20060;-49
2023/11/24 05:34:07;;;;;;;23.60;17.10;;;;;;;8.94;69.45;99031.22;5091466;28;20066;-49
2023/11/24 05:36:36;;;;;;;25.23;19.88;;;;;;;9.11;70.29;99026.59;5092354;28;20538;-49
2023/11/24 05:39:02;;;;;;;26.00;19.13;;;;;;;9.02;69.30;99026.91;5091108;28;20050;-49
2023/11/24 05:41:28;;;;;;;26.67;17.75;;;;;;;8.93;69.68;99027.00;5090986;28;20024;-49
2023/11/24 05:43:54;;;;;;;30.30;26.83;;;;;;;9.15;69.71;99032.28;5092303;28;20085;-49
2023/11/24 05:46:21;;;;;;;26.85;19.27;;;;;;;9.12;69.07;99033.47;5092315;28;20064;-49
2023/11/24 05:48:47;;;;;;;24.00;17.98;;;;;;;9.20;69.46;99045.66;5092299;28;20027;-49
2023/11/24 05:51:13;;;;;;;23.25;17.05;;;;;;;9.33;68.61;99039.75;5091211;28;20367;-49
2023/11/24 05:53:39;;;;;;;25.70;17.67;;;;;;;9.40;68.50;99036.22;5090899;28;20399;-49
2023/11/24 05:56:06;;;;;;;26.30;17.40;;;;;;;9.58;68.10;99041.06;5090709;28;20031;-48
2023/11/24 05:58:35;;;;;;;24.67;17.85;;;;;;;9.67;67.11;99033.09;5090857;28;20498;-49
2023/11/24 06:01:01;;;;;;;26.33;17.05;;;;;;;9.32;66.69;99038.97;5092064;28;20344;-49
2023/11/24 06:03:27;;;;;;;32.88;20.27;;;;;;;8.77;66.93;99035.84;5092030;28;20398;-49
2023/11/24 06:05:54;;;;;;;36.30;20.23;;;;;;;8.54;68.02;99030.66;5090710;28;20032;-48
2023/11/24 06:08:19;;;;;;;30.02;17.83;;;;;;;8.36;67.81;99023.13;5092007;28;20020;-49
2023/11/24 06:10:48;;;;;;;25.80;19.17;;;;;;;8.16;67.96;99016.75;5091906;28;20383;-49
2023/11/24 06:13:14;;;;;;;29.80;20.30;;;;;;;7.85;68.60;99019.44;5090301;28;20016;-49
2023/11/24 06:15:40;;;;;;;34.47;20.33;;;;;;;7.66;69.29;99024.13;5090445;28;20028;-49
2023/11/24 06:18:06;;;;;;;37.25;21.05;;;;;;;7.55;69.78;99009.69;5092150;28;20074;-49
2023/11/24 06:20:32;;;;;;;27.33;19.13;;;;;;;7.50;70.06;99008.56;5091572;28;20448;-49
2023/11/24 06:22:57;;;;;;;27.05;21.33;;;;;;;7.36;70.46;99005.72;5091815;28;20024;-49
2023/11/24 06:25:23;;;;;;;30.85;20.55;;;;;;;7.19;71.16;99007.59;5091815;28;20390;-49
2023/11/24 06:27:49;;;;;;;26.33;20.65;;;;;;;7.12;71.40;99008.44;5090473;28;20032;-49
2023/11/24 06:30:15;;;;;;;31.90;20.15;;;;;;;6.99;71.75;99001.97;5091758;28;20078;-49
2023/11/24 06:32:41;;;;;;;25.52;19.55;;;;;;;7.07;72.33;98998.50;5091790;28;20020;-49
2023/11/24 06:35:07;;;;;;;42.25;32.72;;;;;;;7.16;72.94;98988.84;5091732;28;20494;-49
2023/11/24 06:37:33;;;;;;;27.67;18.90;;;;;;;7.46;73.82;98987.19;5091668;28;20025;-48
2023/11/24 06:40:02;;;;;;;29.15;19.65;;;;;;;7.72;72.97;98984.25;5091661;28;20064;-49
2023/11/24 06:42:29;;;;;;;22.27;16.08;;;;;;;7.79;73.26;98990.44;5090337;28;20077;-49
2023/11/24 06:44:55;;;;;;;24.63;17.30;;;;;;;8.44;73.71;98988.25;5091655;28;20375;-49
2023/11/24 06:47:23;;;;;;;28.27;17.65;;;;;;;8.86;71.69;98996.50;5091592;28;20080;-49
2023/11/24 06:49:50;;;;;;;33.50;17.25;;;;;;;8.83;70.45;98996.84;5090377;28;20024;-49
2023/11/24 06:52:16;;;;;;;27.20;19.35;;;;;;;8.65;70.77;99007.66;5091561;28;20047;-49
2023/11/24 06:54:42;;;;;;;27.65;15.82;;;;;;;8.80;71.08;98998.03;5091566;28;20490;-49
2023/11/24 06:57:07;;;;;;;32.55;18.48;;;;;;;9.13;71.03;99010.72;5091467;28;20024;-49
2023/11/24 06:59:33;;;;;;;25.05;17.60;;;;;;;9.52;69.82;99012.19;5091471;28;20024;-48
2023/11/24 07:01:59;;;;;;;26.63;21.55;;;;;;;9.68;68.43;99008.50;5091384;28;20039;-49
2023/11/24 07:04:25;;;;;;;26.42;22.85;;;;;;;9.82;68.25;98997.16;5073321;28;20024;-48
2023/11/24 07:06:50;;;;;;;30.52;25.33;;;;;;;9.58;66.67;99003.59;5073327;28;20039;-49
2023/11/24 07:09:16;;;;;;;23.67;17.83;;;;;;;9.22;67.26;99006.22;5091443;28;20103;-49
2023/11/24 07:11:42;;;;;;;25.95;18.38;;;;;;;8.88;67.75;98986.66;5091275;28;20328;-49
2023/11/24 07:14:08;;;;;;;22.83;17.95;;;;;;;8.80;69.24;98990.16;5090049;28;20031;-49
2023/11/24 07:16:34;;;;;;;21.73;18.23;;;;;;;8.94;69.22;98983.31;5091176;28;20020;-49
2023/11/24 07:19:00;;;;;;;29.58;18.08;;;;;;;8.92;69.64;98978.25;5091349;28;20070;-49
2023/11/24 07:21:25;;;;;;;28.38;19.27;;;;;;;8.70;69.48;98979.97;5089883;28;20050;-49
2023/11/24 07:23:51;;;;;;;24.17;19.40;;;;;;;8.39;69.26;98982.72;5089947;28;20028;-49
2023/11/24 07:26:18;;;;;;;36.00;23.60;;;;;;;8.02;70.33;98973.09;5092456;28;20032;-49
2023/11/24 07:28:44;;;;;;;22.77;19.50;;;;;;;7.93;71.51;98990.66;5094936;28;20024;-49
2023/11/24 07:31:14;;;;;;;49.85;31.55;;;;;;;8.06;72.59;98977.78;5094768;28;20020;-49
2023/11/24 07:33:43;;;;;;;25.83;19.85;;;;;;;8.11;72.22;98977.25;5095140;28;20115;-49
2023/11/24 07:36:09;;;;;;;30.05;23.52;;;;;;;8.07;72.56;98971.59;5076458;28;20078;-49
2023/11/24 07:38:35;;;;;;;24.70;19.30;;;;;;;8.04;72.90;98965.91;5094719;28;20027;-49
2023/11/24 07:41:04;;;;;;;25.95;18.70;;;;;;;8.33;73.09;98960.72;5093636;28;20028;-49
2023/11/24 07:43:31;;;;;;;23.65;18.30;;;;;;;8.45;72.29;98960.28;5094642;28;20044;-49
2023/11/24 07:45:58;;;;;;;29.33;19.38;;;;;;;8.49;71.94;98953.72;5094587;28;20047;-48
2023/11/24 07:48:23;;;;;;;27.23;19.80;;;;;;;8.52;71.74;98959.41;5093193;28;20482;-48
2023/11/24 07:50:49;;;;;;;26.42;18.50;;;;;;;8.52;71.49;98964.63;5094489;28;20028;-49
2023/11/24 07:53:15;;;;;;;22.65;17.25;;;;;;;8.70;71.62;98960.84;5093118;28;20059;-49
2023/11/24 07:55:41;;;;;;;26.27;16.40;;;;;;;8.93;72.08;98960.72;5094229;28;20024;-49
2023/11/24 07:58:07;;;;;;;25.55;15.75;;;;;;;9.34;70.51;98958.38;5094408;28;20063;-49
2023/11/24 08:00:34;;;;;;;20.13;16.88;;;;;;;9.71;69.55;98961.75;5094264;28;20085;-49
2023/11/24 08:03:01;;;;;;;29.05;18.70;;;;;;;9.68;67.87;98956.91;5094158;28;20028;-49
2023/11/24 08:05:27;;;;;;;22.83;16.48;;;;;;;9.51;68.07;98958.16;5094125;28;20102;-49
2023/11/24 08:07:53;;;;;;;25.45;15.13;;;;;;;9.58;68.67;98962.47;5094407;28;20390;-48
2023/11/24 08:10:18;;;;;;;22.95;15.13;;;;;;;9.91;68.49;98969.81;5094027;28;20077;-49
2023/11/24 08:12:45;;;;;;;24.42;17.13;;;;;;;10.09;67.13;98969.34;5094024;28;20020;-49
2023/11/24 08:15:12;;;;;;;25.05;15.60;;;;;;;10.18;66.50;98960.34;5093965;28;20039;-49
2023/11/24 08:17:39;;;;;;;27.45;14.90;;;;;;;10.29;66.06;98956.38;5093872;28;20512;-49
2023/11/24 08:20:10;;;;;;;20.48;15.48;;;;;;;10.42;65.25;98945.19;5092299;28;20105;-50
2023/11/24 08:22:36;;;;;;;29.17;17.75;;;;;;;10.20;64.54;98937.38;5094106;28;20028;-50
2023/11/24 08:25:09;;;;;;;20.85;16.55;;;;;;;9.98;64.86;98928.75;5075802;28;20032;-50
2023/11/24 08:27:35;;;;;;;27.25;17.83;;;;;;;9.65;65.45;98925.84;5093798;28;20122;-47
2023/11/24 08:30:10;;;;;;;33.88;19.50;;;;;;;9.25;66.78;98930.69;5092413;28;20562;-47
2023/11/24 08:32:38;;;;;;;32.13;20.25;;;;;;;9.04;68.87;98925.44;5093660;28;20032;-49
2023/11/24 08:35:05;;;;;;;31.85;21.77;;;;;;;8.84;70.43;98925.19;5093536;28;20024;-49
2023/11/24 08:37:30;;;;;;;36.22;21.85;;;;;;;8.72;72.42;98919.63;5091958;28;20028;-49
2023/11/24 08:39:56;;;;;;;27.10;19.27;;;;;;;8.61;72.48;98923.50;5092118;28;20032;-49
2023/11/24 08:42:25;;;;;;;28.23;19.27;;;;;;;8.39;73.91;98910.31;5075574;28;20021;-49
2023/11/24 08:44:51;;;;;;;24.52;17.80;;;;;;;8.62;76.43;98908.63;5093394;28;20056;-49
2023/11/24 08:47:17;;;;;;;28.33;17.85;;;;;;;8.94;77.45;98900.34;5093386;28;20056;-49
2023/11/24 08:49:42;;;;;;;24.00;19.20;;;;;;;9.15;75.75;98902.19;5093364;28;20488;-49
2023/11/24 08:52:09;;;;;;;26.23;19.08;;;;;;;9.04;75.02;98896.63;5093181;28;20519;-50
2023/11/24 08:54:40;;;;;;;31.40;22.83;;;;;;;8.85;74.91;98900.63;5093458;28;20127;-50
2023/11/24 08:57:07;;;;;;;28.08;18.25;;;;;;;8.89;76.32;98886.19;5093188;28;20077;-49
2023/11/24 08:59:34;;;;;;;26.67;18.58;;;;;;;9.03;77.04;98876.69;5093102;28;20030;-50
2023/11/24 09:02:00;;;;;;;28.13;17.75;;;;;;;9.50;76.87;98883.19;5091816;28;20432;-50
2023/11/24 09:04:27;;;;;;;37.67;18.90;;;;;;;9.72;75.16;98876.91;5093050;28;20054;-50
2023/11/24 09:06:53;;;;;;;32.20;18.80;;;;;;;9.85;73.82;98867.53;5093268;28;20390;-49
2023/11/24 09:09:19;;;;;;;30.70;18.40;;;;;;;9.88;73.85;98875.00;5092980;28;20051;-50
2023/11/24 09:11:46;;;;;;;23.02;16.52;;;;;;;10.05;73.62;98868.47;5091612;28;20521;-49
2023/11/24 09:14:12;;;;;;;26.88;19.10;;;;;;;10.31;72.68;98869.66;5092814;28;20028;-49
2023/11/24 09:16:38;;;;;;;35.58;25.60;;;;;;;10.17;71.30;98868.75;5092661;28;20027;-48
2023/11/24 09:19:04;;;;;;;24.05;18.17;;;;;;;9.99;71.29;98864.00;5091504;28;20079;-47
2023/11/24 09:21:34;;;;;;;33.20;22.23;;;;;;;9.80;71.48;98861.03;5092435;28;20040;-49
2023/11/24 09:24:00;;;;;;;27.65;21.75;;;;;;;9.79;72.09;98856.78;5092654;28;20073;-49
2023/11/24 09:26:28;;;;;;;58.00;51.80;;;;;;;9.88;72.10;98862.72;5091264;28;20028;-49
2023/11/24 09:28:54;;;;;;;28.98;23.70;;;;;;;9.94;71.73;98853.25;5091311;28;20028;-49
2023/11/24 09:31:21;;;;;;;37.28;30.00;;;;;;;9.91;71.27;98849.22;5092510;28;20157;-49
2023/11/24 09:33:48;;;;;;;27.40;19.40;;;;;;;9.94;71.57;98845.41;5092787;28;20028;-49
2023/11/24 09:36:14;;;;;;;71.65;62.28;;;;;;;10.00;71.20;98845.44;5092426;28;20024;-50
2023/11/24 09:38:39;;;;;;;25.90;19.63;;;;;;;10.22;71.56;98841.94;5092442;28;20013;-49
2023/11/24 09:41:11;;;;;;;30.70;18.52;;;;;;;10.43;71.57;98836.63;5090997;28;20031;-50
2023/11/24 09:43:40;;;;;;;41.38;37.03;;;;;;;10.84;70.12;98834.94;5092316;28;20517;-50
2023/11/24 09:46:07;;;;;;;28.98;21.60;;;;;;;10.76;69.43;98813.09;5091123;28;20500;-49
2023/11/24 09:48:34;;;;;;;29.35;19.63;;;;;;;10.69;69.47;98814.13;5090389;28;20028;-49
2023/11/24 09:51:05;;;;;;;29.70;20.40;;;;;;;10.47;68.63;98811.59;5092172;28;20024;-49
2023/11/24 09:53:35;;;;;;;42.08;23.52;;;;;;;10.33;70.33;98815.19;5092179;28;20020;-49
2023/11/24 09:56:04;;;;;;;70.30;63.00;;;;;;;10.27;71.52;98813.31;5092103;28;20551;-49
2023/11/24 09:58:34;;;;;;;28.00;22.63;;;;;;;10.44;71.98;98811.19;5092146;28;20020;-49
2023/11/24 10:01:09;;;;;;;40.28;20.95;;;;;;;10.58;71.65;98807.59;5092078;28;20027;-50
2023/11/24 10:03:41;;;;;;;26.83;21.48;;;;;;;10.46;70.92;98804.72;5090951;28;20413;-49
2023/11/24 10:06:10;;;;;;;38.85;25.75;;;;;;;10.35;71.32;98802.69;5090751;28;20028;-49
2023/11/24 10:08:40;;;;;;;41.30;33.13;;;;;;;10.41;71.91;98814.22;5092000;28;20039;-49
2023/11/24 10:11:17;;;;;;;81.03;72.90;;;;;;;10.62;72.02;98800.16;5091932;28;20031;-49
2023/11/24 10:13:45;;;;;;;34.88;24.27;;;;;;;10.87;71.91;98789.91;5091974;28;20019;-50
2023/11/24 10:16:14;;;;;;;45.03;39.88;;;;;;;10.96;71.33;98797.38;5090485;28;20028;-49
2023/11/24 10:18:40;;;;;;;121.95;110.75;;;;;;;11.01;71.90;98791.56;5091897;28;20012;-49
2023/11/24 10:21:07;;;;;;;43.42;38.80;;;;;;;11.37;71.99;98782.47;5091533;28;20119;-49
2023/11/24 10:23:33;;;;;;;158.05;142.30;;;;;;;11.79;73.18;98777.75;5091773;28;20023;-50
2023/11/24 10:25:59;;;;;;;65.20;58.67;;;;;;;12.18;72.86;98774.22;5091695;28;20490;-50
2023/11/24 10:28:25;;;;;;;56.97;50.92;;;;;;;12.36;71.58;98770.94;5090797;28;20036;-50
2023/11/24 10:30:56;;;;;;;106.90;95.25;;;;;;;12.45;70.23;98763.59;5090428;28;20024;-50
2023/11/24 10:33:24;;;;;;;252.32;224.88;;;;;;;12.71;69.64;98772.38;5091749;28;20482;-50
2023/11/24 10:35:53;;;;;;;353.50;301.20;;;;;;;12.78;70.25;98763.41;5091620;28;20016;-48
2023/11/24 10:38:19;;;;;;;190.23;171.20;;;;;;;12.69;71.27;98759.41;5091690;28;20027;-48
2023/11/24 10:40:54;;;;;;;94.28;85.00;;;;;;;12.37;71.07;98754.13;5091576;28;20092;-48
2023/11/24 10:43:20;;;;;;;194.40;175.65;;;;;;;12.13;72.00;98753.03;5091682;28;20036;-48
2023/11/24 10:45:51;;;;;;;149.90;135.80;;;;;;;12.06;72.80;98754.06;5090313;28;20024;-48
2023/11/24 10:48:47;;;;;;;183.57;166.45;;;;;;;11.65;73.14;98748.06;5091466;28;20547;-48
2023/11/24 10:51:39;;;;;;;44.22;37.88;;;;;;;11.35;73.48;98743.25;5086396;28;20509;-48
2023/11/24 10:54:07;;;;;;;33.05;26.17;;;;;;;10.93;74.37;98749.72;5090089;28;20032;-48
2023/11/24 10:56:36;;;;;;;34.95;27.70;;;;;;;10.75;76.69;98740.63;5091438;28;20070;-48
2023/11/24 10:59:05;;;;;;;36.00;26.70;;;;;;;10.73;77.75;98731.34;5091784;28;20028;-48
2023/11/24 11:01:31;;;;;;;30.77;22.08;;;;;;;10.95;78.53;98727.50;5094492;28;20022;-47
2023/11/24 11:04:00;;;;;;;24.73;19.95;;;;;;;11.08;78.67;98723.28;5095448;28;20024;-48
2023/11/24 11:06:38;;;;;;;23.17;17.05;;;;;;;11.31;78.61;98710.53;5095309;28;20051;-47
2023/11/24 11:11:46;;;;;;;35.55;17.95;;;;;;;11.40;82.27;98711.91;5095633;28;20024;-48
2023/11/24 11:14:17;;;;;;;37.53;31.02;;;;;;;11.57;82.67;98711.50;5095440;28;20401;-48
2023/11/24 11:16:46;;;;;;;30.50;25.40;;;;;;;11.72;82.88;98706.78;5095206;28;20028;-48
2023/11/24 11:19:31;;;;;;;26.13;23.13;;;;;;;11.81;82.55;98696.84;5076951;28;20472;-47
2023/11/24 11:21:59;;;;;;;33.85;19.65;;;;;;;11.82;83.93;98690.59;5094822;28;20051;-47
2023/11/24 11:24:28;;;;;;;35.05;30.35;;;;;;;11.79;83.55;98697.06;5093808;28;20126;-47